createdAt,value
2022-09-23T00:00:49.796Z,97422.78
2022-09-23T00:03:17.772Z,97427.78
2022-09-23T00:05:44.855Z,97423.50
2022-09-23T00:08:14.885Z,97421.88
2022-09-23T00:10:42.417Z,97416.06
2022-09-23T00:13:10.853Z,97429.19
2022-09-23T00:15:39.184Z,97421.69
2022-09-23T00:18:06.610Z,97416.56
2022-09-23T00:20:35.254Z,97413.09
2022-09-23T00:23:03.226Z,97412.44
2022-09-23T00:25:31.040Z,97424.59
2022-09-23T00:27:59.063Z,97421.13
2022-09-23T00:30:29.396Z,97414.44
2022-09-23T00:32:56.513Z,97415.41
2022-09-23T00:35:24.010Z,97413.84
2022-09-23T00:37:51.882Z,97411.31
2022-09-23T00:40:19.282Z,97412.25
2022-09-23T00:42:48.082Z,97404.50
2022-09-23T00:45:15.680Z,97404.44
2022-09-23T00:47:51.517Z,97404.50
2022-09-23T00:50:26.413Z,97400.25
2022-09-23T00:52:56.136Z,97394.19
2022-09-23T00:55:28.780Z,97401.22
2022-09-23T00:58:00.137Z,97402.16
2022-09-23T01:00:27.655Z,97400.66
2022-09-23T01:02:57.118Z,97397.44
2022-09-23T01:05:25.294Z,97389.63
2022-09-23T01:07:54.221Z,97393.19
2022-09-23T01:10:23.030Z,97387.16
2022-09-23T01:13:06.391Z,97387.09
2022-09-23T01:15:42.879Z,97394.78
2022-09-23T01:18:23.489Z,97393.13
2022-09-23T01:21:10.069Z,97388.91
2022-09-23T01:24:07.245Z,97386.34
2022-09-23T01:27:01.597Z,97388.19
2022-09-23T01:30:03.506Z,97366.91
2022-09-23T01:32:43.693Z,97372.88
2022-09-23T01:35:18.742Z,97367.06
2022-09-23T01:37:51.530Z,97369.59
2022-09-23T01:40:23.872Z,97371.28
2022-09-23T01:42:55.530Z,97367.88
2022-09-23T01:45:31.480Z,97363.66
2022-09-23T01:48:06.581Z,97366.34
2022-09-23T01:50:39.196Z,97377.44
2022-09-23T01:53:12.521Z,97369.66
2022-09-23T01:55:43.504Z,97362.88
2022-09-23T01:58:17.747Z,97374.09
2022-09-23T02:00:54.640Z,97363.78
2022-09-23T02:03:30.085Z,97351.88
2022-09-23T02:06:03.631Z,97369.03
2022-09-23T02:08:37.634Z,97358.78
2022-09-23T02:11:08.630Z,97365.84
2022-09-23T02:13:43.783Z,97366.69
2022-09-23T02:16:21.317Z,97350.38
2022-09-23T02:18:56.239Z,97355.69
2022-09-23T02:21:29.442Z,97355.63
2022-09-23T02:24:04.836Z,97340.22
2022-09-23T02:26:36.965Z,97346.31
2022-09-23T02:29:12.094Z,97346.47
2022-09-23T02:31:43.925Z,97356.00
2022-09-23T02:34:21.522Z,97356.13
2022-09-23T02:37:00.633Z,97350.13
2022-09-23T02:39:37.609Z,97351.84
2022-09-23T02:42:07.180Z,97350.84
2022-09-23T02:44:34.480Z,97353.53
2022-09-23T02:47:02.235Z,97357.00
2022-09-23T02:49:34.274Z,97354.38
2022-09-23T02:52:06.171Z,97362.88
2022-09-23T02:54:34.395Z,97354.25
2022-09-23T02:57:04.822Z,97342.34
2022-09-23T02:59:33.547Z,97347.44
2022-09-23T03:02:38.596Z,97345.75
2022-09-23T03:05:14.429Z,97352.72
2022-09-23T03:07:51.854Z,97355.44
2022-09-23T03:10:25.159Z,97355.66
2022-09-23T03:13:05.117Z,97349.69
2022-09-23T03:15:38.547Z,97354.00
2022-09-23T03:18:14.710Z,97343.84
2022-09-23T03:20:46.230Z,97344.75
2022-09-23T03:23:16.762Z,97343.97
2022-09-23T03:25:48.675Z,97339.84
2022-09-23T03:28:17.766Z,97338.28
2022-09-23T03:30:45.934Z,97337.53
2022-09-23T03:33:17.113Z,97341.81
2022-09-23T03:35:53.435Z,97333.28
2022-09-23T03:38:24.740Z,97333.41
2022-09-23T03:40:55.410Z,97330.91
2022-09-23T03:43:23.354Z,97330.91
2022-09-23T03:45:54.432Z,97322.44
2022-09-23T03:48:22.243Z,97315.72
2022-09-23T03:50:51.654Z,97321.84
2022-09-23T03:53:19.206Z,97325.31
2022-09-23T03:55:46.723Z,97318.44
2022-09-23T03:58:14.259Z,97315.91
2022-09-23T04:00:41.845Z,97322.72
2022-09-23T04:03:11.791Z,97322.72
2022-09-23T04:05:39.380Z,97321.22
2022-09-23T04:08:09.790Z,97308.34
2022-09-23T04:10:41.164Z,97316.84
2022-09-23T04:13:09.128Z,97308.28
2022-09-23T04:15:38.011Z,97304.06
2022-09-23T04:18:05.294Z,97304.03
2022-09-23T04:20:32.725Z,97295.47
2022-09-23T04:23:00.684Z,97304.84
2022-09-23T04:25:32.668Z,97308.34
2022-09-23T04:28:00.486Z,97303.28
2022-09-23T04:30:27.681Z,97296.44
2022-09-23T04:32:54.785Z,97298.16
2022-09-23T04:35:22.082Z,97298.16
2022-09-23T04:37:49.924Z,97301.59
2022-09-23T04:40:17.517Z,97309.56
2022-09-23T04:42:46.245Z,97310.44
2022-09-23T04:45:13.483Z,97309.63
2022-09-23T04:47:40.961Z,97311.66
2022-09-23T04:50:09.449Z,97312.59
2022-09-23T04:52:36.940Z,97316.88
2022-09-23T04:55:09.132Z,97316.03
2022-09-23T04:57:38.422Z,97314.34
2022-09-23T05:00:10.089Z,97321.22
2022-09-23T05:02:43.373Z,97301.66
2022-09-23T05:05:11.175Z,97311.06
2022-09-23T05:07:39.061Z,97315.31
2022-09-23T05:10:07.515Z,97311.91
2022-09-23T05:12:34.710Z,97317.06
2022-09-23T05:15:02.527Z,97321.47
2022-09-23T05:17:32.661Z,97321.53
2022-09-23T05:20:00.169Z,97312.16
2022-09-23T05:22:30.865Z,97311.13
2022-09-23T05:24:59.527Z,97312.88
2022-09-23T05:27:26.891Z,97316.31
2022-09-23T05:29:54.475Z,97315.41
2022-09-23T05:32:22.260Z,97317.16
2022-09-23T05:34:52.355Z,97315.38
2022-09-23T05:37:19.853Z,97320.38
2022-09-23T05:39:47.829Z,97327.06
2022-09-23T05:42:16.941Z,97324.28
2022-09-23T05:44:44.902Z,97320.59
2022-09-23T05:47:12.621Z,97331.47
2022-09-23T05:49:58.629Z,97325.25
2022-09-23T05:52:29.293Z,97327.69
2022-09-23T05:54:56.791Z,97325.81
2022-09-23T05:57:24.810Z,97327.31
2022-09-23T05:59:52.210Z,97329.69
2022-09-23T06:02:19.865Z,97326.19
2022-09-23T06:04:47.833Z,97328.50
2022-09-23T06:07:15.116Z,97327.47
2022-09-23T06:09:44.470Z,97315.97
2022-09-23T06:12:12.345Z,97321.72
2022-09-23T06:14:39.649Z,97318.00
2022-09-23T06:17:06.965Z,97325.47
2022-09-23T06:19:34.046Z,97325.25
2022-09-23T06:22:00.916Z,97319.03
2022-09-23T06:24:31.366Z,97322.28
2022-09-23T06:27:00.340Z,97328.78
2022-09-23T06:29:27.278Z,97320.88
2022-09-23T06:31:54.576Z,97334.28
2022-09-23T06:34:22.012Z,97326.41
2022-09-23T06:36:49.770Z,97330.47
2022-09-23T06:39:17.359Z,97331.94
2022-09-23T06:41:45.174Z,97333.47
2022-09-23T06:44:14.668Z,97335.75
2022-09-23T06:46:41.921Z,97341.50
2022-09-23T06:49:09.035Z,97336.94
2022-09-23T06:51:36.077Z,97335.75
2022-09-23T06:54:03.697Z,97336.22
2022-09-23T06:56:34.853Z,97330.88
2022-09-23T06:59:03.344Z,97321.16
2022-09-23T07:01:32.436Z,97327.72
2022-09-23T07:03:59.834Z,97322.19
2022-09-23T07:06:26.923Z,97324.47
2022-09-23T07:08:54.344Z,97327.59
2022-09-23T07:11:21.446Z,97323.91
2022-09-23T07:13:48.676Z,97320.03
2022-09-23T07:16:15.684Z,97323.13
2022-09-23T07:18:44.402Z,97321.91
2022-09-23T07:21:14.387Z,97330.16
2022-09-23T07:23:41.942Z,97319.63
2022-09-23T07:26:10.101Z,97331.34
2022-09-23T07:28:38.334Z,97325.69
2022-09-23T07:31:07.704Z,97323.53
2022-09-23T07:33:36.128Z,97330.59
2022-09-23T07:36:12.975Z,97327.44
2022-09-23T07:38:45.122Z,97328.69
2022-09-23T07:41:15.158Z,97318.03
2022-09-23T07:43:42.223Z,97324.00
2022-09-23T07:46:12.542Z,97320.13
2022-09-23T07:48:39.582Z,97321.38
2022-09-23T07:51:10.314Z,97318.50
2022-09-23T07:53:38.012Z,97317.25
2022-09-23T07:56:06.272Z,97322.88
2022-09-23T07:58:34.887Z,97329.34
2022-09-23T08:01:04.510Z,97322.88
2022-09-23T08:03:31.871Z,97321.75
2022-09-23T08:06:05.036Z,97323.97
2022-09-23T08:08:33.767Z,97329.69
2022-09-23T08:11:02.267Z,97331.75
2022-09-23T08:13:29.608Z,97321.75
2022-09-23T08:15:57.059Z,97318.75
2022-09-23T08:18:24.659Z,97327.91
2022-09-23T08:20:51.915Z,97327.44
2022-09-23T08:23:19.655Z,97324.91
2022-09-23T08:25:48.403Z,97320.22
2022-09-23T08:28:16.289Z,97318.91
2022-09-23T08:30:44.337Z,97315.84
2022-09-23T08:33:12.229Z,97313.56
2022-09-23T08:35:39.937Z,97317.69
2022-09-23T08:38:07.200Z,97314.69
2022-09-23T08:40:36.069Z,97313.41
2022-09-23T08:43:06.201Z,97312.66
2022-09-23T08:45:36.013Z,97314.41
2022-09-23T08:48:13.131Z,97319.09
2022-09-23T08:50:42.546Z,97305.41
2022-09-23T08:53:18.441Z,97301.00
2022-09-23T08:55:48.992Z,97304.81
2022-09-23T08:58:30.350Z,97296.00
2022-09-23T09:01:08.506Z,97299.84
2022-09-23T09:03:41.134Z,97298.56
2022-09-23T09:06:15.974Z,97297.09
2022-09-23T09:08:47.331Z,97294.22
2022-09-23T09:11:16.901Z,97292.75
2022-09-23T09:13:54.391Z,97291.47
2022-09-23T09:16:58.319Z,97293.34
2022-09-23T09:19:46.439Z,97288.91
2022-09-23T09:22:31.428Z,97296.31
2022-09-23T09:25:05.287Z,97282.72
2022-09-23T09:27:33.300Z,97284.31
2022-09-23T09:30:02.469Z,97287.00
2022-09-23T09:32:40.241Z,97285.50
2022-09-23T09:35:19.100Z,97290.22
2022-09-23T09:37:48.145Z,97283.25
2022-09-23T09:40:17.424Z,97280.16
2022-09-23T09:42:48.605Z,97281.63
2022-09-23T09:45:25.646Z,97275.66
2022-09-23T09:48:01.373Z,97279.50
2022-09-23T09:50:46.190Z,97277.38
2022-09-23T09:53:21.376Z,97278.44
2022-09-23T09:56:04.344Z,97261.84
2022-09-23T09:58:36.382Z,97265.09
2022-09-23T10:01:05.610Z,97259.38
2022-09-23T10:03:37.717Z,97260.84
2022-09-23T10:06:18.719Z,97264.44
2022-09-23T10:09:13.956Z,97254.53
2022-09-23T10:11:42.214Z,97256.34
2022-09-23T10:14:14.247Z,97247.19
2022-09-23T10:16:44.222Z,97250.81
2022-09-23T10:19:24.652Z,97243.41
2022-09-23T10:21:53.513Z,97237.34
2022-09-23T10:24:25.493Z,97244.22
2022-09-23T10:26:57.795Z,97242.72
2022-09-23T10:29:29.365Z,97239.91
2022-09-23T10:32:21.052Z,97234.66
2022-09-23T10:34:52.399Z,97244.19
2022-09-23T10:37:34.881Z,97243.59
2022-09-23T10:40:25.878Z,97234.34
2022-09-23T10:43:01.512Z,97226.19
2022-09-23T10:45:33.904Z,97236.69
2022-09-23T10:48:08.827Z,97220.25
2022-09-23T10:50:42.391Z,97222.53
2022-09-23T10:53:18.444Z,97202.84
2022-09-23T10:56:13.536Z,97221.94
2022-09-23T10:59:04.234Z,97211.97
2022-09-23T11:01:40.954Z,97212.38
2022-09-23T11:04:24.797Z,97204.81
2022-09-23T11:07:08.582Z,97198.06
2022-09-23T11:09:45.239Z,97206.38
2022-09-23T11:12:22.586Z,97202.59
2022-09-23T11:15:09.458Z,97198.41
2022-09-23T11:17:57.545Z,97188.94
2022-09-23T11:20:43.410Z,97195.38
2022-09-23T11:23:43.800Z,97189.31
2022-09-23T11:26:26.827Z,97197.91
2022-09-23T11:29:10.592Z,97193.03
2022-09-23T11:31:44.905Z,97191.72
2022-09-23T11:34:30.355Z,97174.84
2022-09-23T11:37:04.816Z,97174.47
2022-09-23T11:39:38.029Z,97174.00
2022-09-23T11:42:11.205Z,97168.28
2022-09-23T11:44:43.685Z,97158.31
2022-09-23T11:47:17.219Z,97170.53
2022-09-23T11:49:51.446Z,97163.88
2022-09-23T11:52:25.947Z,97145.16
2022-09-23T11:54:56.998Z,97147.31
2022-09-23T11:57:42.372Z,97146.69
2022-09-23T12:00:18.440Z,97149.81
2022-09-23T12:03:05.144Z,97142.69
2022-09-23T12:05:38.826Z,97149.81
2022-09-23T12:08:17.801Z,97148.00
2022-09-23T12:10:55.541Z,97151.94
2022-09-23T12:13:34.282Z,97134.28
2022-09-23T12:16:26.889Z,97150.97
2022-09-23T12:19:04.965Z,97144.53
2022-09-23T12:21:54.411Z,97139.03
2022-09-23T12:24:38.883Z,97136.41
2022-09-23T12:27:11.775Z,97131.28
2022-09-23T12:29:40.956Z,97128.56
2022-09-23T12:32:17.187Z,97120.69
2022-09-23T12:34:48.086Z,97129.47
2022-09-23T12:37:25.560Z,97115.88
2022-09-23T12:39:59.937Z,97112.41
2022-09-23T12:42:30.967Z,97109.13
2022-09-23T12:45:31.594Z,97103.97
2022-09-23T12:48:00.027Z,97101.47
2022-09-23T12:50:57.812Z,97097.81
2022-09-23T12:53:53.595Z,97093.72
2022-09-23T12:56:25.664Z,97088.56
2022-09-23T12:59:25.367Z,97092.44
2022-09-23T13:01:53.370Z,97093.88
2022-09-23T13:04:44.722Z,97095.41
2022-09-23T13:07:16.196Z,97082.56
2022-09-23T13:09:47.268Z,97082.72
2022-09-23T13:12:20.184Z,97074.91
2022-09-23T13:14:50.491Z,97071.63
2022-09-23T13:17:33.269Z,97069.97
2022-09-23T13:20:04.382Z,97068.31
2022-09-23T13:22:59.661Z,97069.66
2022-09-23T13:25:29.924Z,97075.03
2022-09-23T13:28:02.238Z,97058.75
2022-09-23T13:30:29.566Z,97054.53
2022-09-23T13:33:06.132Z,97042.69
2022-09-23T13:35:36.622Z,97053.25
2022-09-23T13:38:11.339Z,97043.69
2022-09-23T13:40:40.155Z,97040.13
2022-09-23T13:43:14.491Z,97023.94
2022-09-23T13:45:42.879Z,97036.78
2022-09-23T13:48:13.864Z,97032.94
2022-09-23T13:50:45.237Z,97031.44
2022-09-23T13:53:20.972Z,97030.78
2022-09-23T13:55:59.191Z,97031.75
2022-09-23T13:58:30.701Z,97025.00
2022-09-23T14:00:59.053Z,97029.72
2022-09-23T14:03:35.192Z,97027.63
2022-09-23T14:06:08.393Z,97023.88
2022-09-23T14:08:35.859Z,97035.38
2022-09-23T14:11:03.194Z,97029.84
2022-09-23T14:13:36.418Z,97022.91
2022-09-23T14:16:04.767Z,97033.56
2022-09-23T14:18:35.799Z,97019.03
2022-09-23T14:21:03.183Z,97020.00
2022-09-23T14:23:30.687Z,97015.72
2022-09-23T14:25:59.090Z,97007.28
2022-09-23T14:28:27.847Z,97015.84
2022-09-23T14:30:57.482Z,97016.38
2022-09-23T14:33:28.343Z,97012.34
2022-09-23T14:36:02.294Z,97011.81
2022-09-23T14:38:31.204Z,97007.97
2022-09-23T14:40:59.712Z,97007.84
2022-09-23T14:43:28.525Z,96993.75
2022-09-23T14:45:58.839Z,96988.75
2022-09-23T14:48:28.929Z,96990.53
2022-09-23T14:50:59.037Z,96990.66
2022-09-23T14:53:38.684Z,96989.44
2022-09-23T14:56:20.570Z,96982.69
2022-09-23T14:58:55.945Z,96990.44
2022-09-23T15:01:38.818Z,96994.84
2022-09-23T15:04:18.182Z,96986.66
2022-09-23T15:06:53.576Z,96984.03
2022-09-23T15:09:25.086Z,96981.28
2022-09-23T15:11:54.092Z,96973.81
2022-09-23T15:14:37.196Z,96976.72
2022-09-23T15:17:17.131Z,96978.75
2022-09-23T15:19:45.467Z,96982.91
2022-09-23T15:22:14.563Z,96979.44
2022-09-23T15:24:44.578Z,96975.84
2022-09-23T15:27:25.592Z,96981.63
2022-09-23T15:29:53.506Z,96979.44
2022-09-23T15:32:23.123Z,96979.31
2022-09-23T15:34:50.701Z,96972.06
2022-09-23T15:37:17.987Z,96972.47
2022-09-23T15:39:45.758Z,96974.91
2022-09-23T15:42:12.978Z,96977.38
2022-09-23T15:44:41.036Z,96971.81
2022-09-23T15:47:15.849Z,96969.34
2022-09-23T15:49:45.684Z,96973.84
2022-09-23T15:52:13.628Z,96972.09
2022-09-23T15:54:41.007Z,96965.44
2022-09-23T15:57:08.256Z,96963.19
2022-09-23T15:59:35.485Z,96963.72
2022-09-23T16:02:05.685Z,96959.69
2022-09-23T16:04:33.268Z,96964.81
2022-09-23T16:07:03.652Z,96956.50
2022-09-23T16:09:30.758Z,96960.47
2022-09-23T16:11:57.921Z,96954.91
2022-09-23T16:14:25.669Z,96962.47
2022-09-23T16:16:52.765Z,96961.78
2022-09-23T16:19:20.168Z,96961.84
2022-09-23T16:21:47.256Z,96962.59
2022-09-23T16:24:21.697Z,96977.19
2022-09-23T16:26:50.908Z,96970.06
2022-09-23T16:29:18.870Z,96964.84
2022-09-23T16:31:46.155Z,96967.66
2022-09-23T16:34:13.894Z,96964.94
2022-09-23T16:36:43.656Z,96965.56
2022-09-23T16:39:13.128Z,96964.75
2022-09-23T16:41:43.430Z,96965.03
2022-09-23T16:44:11.073Z,96970.53
2022-09-23T16:46:38.289Z,96967.34
2022-09-23T16:49:05.863Z,96966.53
2022-09-23T16:51:34.497Z,96960.56
2022-09-23T16:54:01.964Z,96959.94
2022-09-23T16:56:29.912Z,96964.34
2022-09-23T16:58:58.752Z,96957.78
2022-09-23T17:01:27.759Z,96961.09
2022-09-23T17:03:55.078Z,96961.66
2022-09-23T17:06:22.253Z,96960.44
2022-09-23T17:08:49.488Z,96961.88
2022-09-23T17:11:17.881Z,96967.66
2022-09-23T17:13:45.428Z,96958.13
2022-09-23T17:16:24.551Z,96968.38
2022-09-23T17:18:52.809Z,96973.44
2022-09-23T17:21:20.514Z,96967.84
2022-09-23T17:23:48.054Z,96959.72
2022-09-23T17:26:15.867Z,96968.94
2022-09-23T17:28:43.363Z,96951.13
2022-09-23T17:31:10.832Z,96959.13
2022-09-23T17:33:40.936Z,96965.63
2022-09-23T17:36:09.862Z,96969.84
2022-09-23T17:38:37.365Z,96967.88
2022-09-23T17:41:04.653Z,96971.25
2022-09-23T17:43:32.442Z,96969.78
2022-09-23T17:46:04.042Z,96973.53
2022-09-23T17:48:32.377Z,96971.13
2022-09-23T17:51:03.973Z,96971.34
2022-09-23T17:53:33.261Z,96968.44
2022-09-23T17:56:02.766Z,96961.16
2022-09-23T17:58:32.474Z,96972.84
2022-09-23T18:00:59.940Z,96966.28
2022-09-23T18:03:29.446Z,96970.22
2022-09-23T18:06:11.993Z,96974.09
2022-09-23T18:08:40.771Z,96980.25
2022-09-23T18:11:15.660Z,96976.25
2022-09-23T18:13:43.595Z,96975.75
2022-09-23T18:16:11.153Z,96976.25
2022-09-23T18:18:39.234Z,96966.34
2022-09-23T18:21:08.622Z,96974.56
2022-09-23T18:23:36.637Z,96965.94
2022-09-23T18:26:05.082Z,96964.25
2022-09-23T18:28:34.925Z,96958.53
2022-09-23T18:31:02.742Z,96957.06
2022-09-23T18:33:29.814Z,96949.66
2022-09-23T18:36:00.498Z,96957.56
2022-09-23T18:38:30.528Z,96957.88
2022-09-23T18:40:59.240Z,96955.38
2022-09-23T18:43:33.014Z,96956.72
2022-09-23T18:46:05.834Z,96957.81
2022-09-23T18:48:34.855Z,96949.56
2022-09-23T18:51:02.256Z,96962.97
2022-09-23T18:53:32.942Z,96970.13
2022-09-23T18:56:05.125Z,96965.22
2022-09-23T18:58:32.659Z,96972.50
2022-09-23T19:01:03.954Z,96974.28
2022-09-23T19:03:31.294Z,96967.78
2022-09-23T19:06:02.705Z,96963.06
2022-09-23T19:08:32.184Z,96961.19
2022-09-23T19:11:01.110Z,96972.66
2022-09-23T19:13:28.419Z,96980.53
2022-09-23T19:15:56.384Z,96969.56
2022-09-23T19:18:23.847Z,96973.22
2022-09-23T19:20:53.864Z,96972.28
2022-09-23T19:23:21.445Z,96976.94
2022-09-23T19:25:50.591Z,96974.34
2022-09-23T19:28:17.819Z,96973.81
2022-09-23T19:30:45.325Z,96990.41
2022-09-23T19:33:12.441Z,96982.81
2022-09-23T19:35:46.441Z,96987.47
2022-09-23T19:38:13.945Z,96979.03
2022-09-23T19:40:43.107Z,96992.31
2022-09-23T19:43:16.317Z,96981.25
2022-09-23T19:45:43.844Z,96975.41
2022-09-23T19:48:11.746Z,96977.47
2022-09-23T19:50:40.148Z,96980.25
2022-09-23T19:53:08.249Z,96985.44
2022-09-23T19:55:35.734Z,96984.78
2022-09-23T19:58:03.633Z,96983.22
2022-09-23T20:00:33.006Z,96981.81
2022-09-23T20:03:00.437Z,96988.88
2022-09-23T20:05:27.760Z,96987.28
2022-09-23T20:07:55.382Z,96981.09
2022-09-23T20:10:22.884Z,96977.72
2022-09-23T20:12:50.052Z,96979.69
2022-09-23T20:15:17.601Z,96981.16
2022-09-23T20:17:46.554Z,96977.09
2022-09-23T20:20:13.994Z,96984.03
2022-09-23T20:22:41.310Z,96974.47
2022-09-23T20:25:10.902Z,96969.38
2022-09-23T20:27:38.171Z,96980.59
2022-09-23T20:30:06.868Z,96964.91
2022-09-23T20:32:34.880Z,96963.28
2022-09-23T20:35:04.005Z,96959.81
2022-09-23T20:37:31.050Z,96958.06
2022-09-23T20:39:58.959Z,96961.78
2022-09-23T20:42:26.278Z,96958.25
2022-09-23T20:44:53.792Z,96966.22
2022-09-23T20:47:23.706Z,96969.94
2022-09-23T20:49:50.960Z,96955.44
2022-09-23T20:52:20.328Z,96945.31
2022-09-23T20:54:47.442Z,96955.72
2022-09-23T20:57:14.521Z,96948.19
2022-09-23T20:59:41.626Z,96950.97
2022-09-23T21:02:10.712Z,96946.63
2022-09-23T21:04:37.735Z,96944.03
2022-09-23T21:07:04.892Z,96950.31
2022-09-23T21:09:34.433Z,96951.34
2022-09-23T21:12:02.252Z,96949.69
2022-09-23T21:14:29.311Z,96949.94
2022-09-23T21:16:56.523Z,96941.47
2022-09-23T21:19:23.561Z,96949.38
2022-09-23T21:21:50.768Z,96944.34
2022-09-23T21:24:53.242Z,96937.59
2022-09-23T21:27:06.480Z,96945.03
2022-09-23T21:29:33.577Z,96942.78
2022-09-23T21:32:00.679Z,96936.22
2022-09-23T21:34:27.879Z,96935.34
2022-09-23T21:36:55.585Z,96931.09
2022-09-23T21:39:22.668Z,96938.16
2022-09-23T21:41:49.967Z,96925.44
2022-09-23T21:44:18.795Z,96934.22
2022-09-23T21:46:46.537Z,96937.00
2022-09-23T21:49:14.473Z,96937.16
2022-09-23T21:51:42.226Z,96942.44
2022-09-23T21:54:13.360Z,96933.91
2022-09-23T21:56:42.407Z,96935.75
2022-09-23T21:59:09.925Z,96927.47
2022-09-23T22:01:41.733Z,96941.53
2022-09-23T22:04:15.098Z,96937.38
2022-09-23T22:06:42.573Z,96935.69
2022-09-23T22:09:12.958Z,96938.53
2022-09-23T22:11:41.521Z,96933.53
2022-09-23T22:14:11.629Z,96936.94
2022-09-23T22:16:40.807Z,96934.78
2022-09-23T22:19:10.874Z,96933.28
2022-09-23T22:21:41.690Z,96926.50
2022-09-23T22:24:10.770Z,96925.53
2022-09-23T22:26:39.927Z,96937.78
2022-09-23T22:29:08.947Z,96930.19
2022-09-23T22:31:36.863Z,96935.44
2022-09-23T22:34:05.835Z,96929.69
2022-09-23T22:36:33.021Z,96937.72
2022-09-23T22:39:00.318Z,96941.31
2022-09-23T22:41:27.542Z,96930.19
2022-09-23T22:43:54.908Z,96927.09
2022-09-23T22:46:22.972Z,96925.59
2022-09-23T22:48:50.361Z,96934.38
2022-09-23T22:51:20.481Z,96930.28
2022-09-23T22:53:47.676Z,96925.25
2022-09-23T22:56:14.860Z,96915.81
2022-09-23T22:58:42.423Z,96916.59
2022-09-23T23:01:09.779Z,96910.47
2022-09-23T23:03:37.098Z,96915.63
2022-09-23T23:06:05.048Z,96915.72
2022-09-23T23:08:34.362Z,96917.72
2022-09-23T23:11:04.533Z,96915.31
2022-09-23T23:13:32.994Z,96918.97
2022-09-23T23:16:04.182Z,96922.56
2022-09-23T23:18:32.330Z,96916.78
2022-09-23T23:21:06.875Z,96928.81
2022-09-23T23:23:39.137Z,96921.38
2022-09-23T23:26:11.987Z,96931.06
2022-09-23T23:28:39.839Z,96926.06
2022-09-23T23:31:08.412Z,96922.75
2022-09-23T23:33:36.509Z,96924.44
2022-09-23T23:36:03.973Z,96914.41
2022-09-23T23:38:31.222Z,96917.16
2022-09-23T23:41:02.369Z,96911.06
2022-09-23T23:43:29.773Z,96914.72
2022-09-23T23:45:57.181Z,96914.81
2022-09-23T23:48:24.792Z,96914.13
2022-09-23T23:50:53.274Z,96910.78
2022-09-23T23:53:21.077Z,96904.03
2022-09-23T23:55:48.130Z,96909.34
2022-09-23T23:58:18.691Z,96904.41
